Terminal Aerodrome Forecast
Issued by NWS

Home | Current Version | Previous Version | Text Only | Print | Product List | Glossary On
Versions: 1 2 3 4 5 6 7 8 9 10 11 12 13 14 15 16 17 18 19 20 21
000
FTUS41 KGYX 280902 AAA
TAFRKD
TAF AMD
KRKD 280902Z 2809/2906 23009G16KT 6SM HZ SCT010 SCT120
     FM281400 22010KT 6SM HZ SCT010 SCT050
     FM281800 23009G16KT 4SM HZ OVC050 PROB30 2820/2821 4SM -TSRA
      BKN050CB
     FM290200 29006KT P6SM SCT120
      AMD LTD TO CLD VIS AND WIND=

USA.gov is the U.S. government's official web portal to all federal, state and local government web resources and services.